ADDS - METARS form results

Aviation Digital Data Service (ADDS)

Output produced by METARs form (0529 UTC 23 September 2021)
found at http://aviationweather.gov/metar/data/
 
METAR text: KJOT 230515Z AUTO 34005KT 10SM CLR 14/07 A3005 RMK AO2 T01380072
Conditions at: KJOT (JOLIET , IL, US) observed 0515 UTC 23 September 2021
Temperature: 13.8°C (57°F)
Dewpoint: 7.2°C (45°F) [RH = 64%]
Pressure (altimeter): 30.05 inches Hg (1017.7 mb)
Winds: from the NNW (340 degrees) at 6 MPH (5 knots; 2.6 m/s)
Visibility: 10 or more miles (16+ km)
Ceiling: at least 12,000 feet AGL
Clouds: sky clear below 12,000 feet AGL
Weather: automated observation with no human augmentation;
there may or may not be significant weather present at this time

METAR text: KJOT 230455Z AUTO 33005KT 10SM CLR 14/07 A3006 RMK AO2 T01400072
Conditions at: KJOT (JOLIET , IL, US) observed 0455 UTC 23 September 2021
Temperature: 14.0°C (57°F)
Dewpoint: 7.2°C (45°F) [RH = 64%]
Pressure (altimeter): 30.06 inches Hg (1018.0 mb)
Winds: from the NNW (330 degrees) at 6 MPH (5 knots; 2.6 m/s)
Visibility: 10 or more miles (16+ km)
Ceiling: at least 12,000 feet AGL
Clouds: sky clear below 12,000 feet AGL
Weather: automated observation with no human augmentation;
there may or may not be significant weather present at this time

METAR text: KJOT 230435Z AUTO 33004KT 10SM CLR 14/07 A3006 RMK AO2 T01390072
Conditions at: KJOT (JOLIET , IL, US) observed 0435 UTC 23 September 2021
Temperature: 13.9°C (57°F)
Dewpoint: 7.2°C (45°F) [RH = 64%]
Pressure (altimeter): 30.06 inches Hg (1018.0 mb)
Winds: from the NNW (330 degrees) at 5 MPH (4 knots; 2.1 m/s)
Visibility: 10 or more miles (16+ km)
Ceiling: at least 12,000 feet AGL
Clouds: sky clear below 12,000 feet AGL
Weather: automated observation with no human augmentation;
there may or may not be significant weather present at this time